Time;durP1;ratioP1;P1;durP2;ratioP2;P2;SDS_P1;SDS_P2;PMS_P1;PMS_P2;Temp;Humidity;BMP_temperature;BMP_pressure;BME280_temperature;BME280_humidity;BME280_pressure;Samples;Min_cycle;Max_cycle;Signal;HPM_P1;HPM_P2
2024/02/10 00:08:24;;;;;;;35.9;20.9;;;;;;;5.51;90.18;96675;;;;
2024/02/10 00:18:25;;;;;;;35.9;20.9;;;;;;;5.72;89.99;96673.333333333;;;;
2024/02/10 00:29:24;;;;;;;35.9;20.9;;;;;;;5.5;89.75;96675;;;;
2024/02/10 00:39:24;;;;;;;37.5;23.5;;;;;;;5.52;90.02;96671.666666667;;;;
2024/02/10 00:49:24;;;;;;;37.5;23.5;;;;;;;5.65;89.88;96670;;;;
2024/02/10 01:00:24;;;;;;;29.6;20.5;;;;;;;5.8;90.61;96673.333333333;;;;
2024/02/10 01:10:24;;;;;;;29.6;20.5;;;;;;;6.06;90.91;96671.666666667;;;;
2024/02/10 01:20:24;;;;;;;29.6;20.5;;;;;;;6.12;89.95;96661.666666667;;;;
2024/02/10 01:31:24;;;;;;;32.6;22.1;;;;;;;6.24;89.53;96656.666666667;;;;
2024/02/10 01:41:24;;;;;;;32.6;22.1;;;;;;;6.16;88.77;96656.666666667;;;;
2024/02/10 01:51:24;;;;;;;32.6;22.1;;;;;;;6.13;88.54;96655;;;;
2024/02/10 02:02:24;;;;;;;34.5;23.8;;;;;;;6.16;89.32;96648.333333333;;;;
2024/02/10 02:13:24;;;;;;;34.5;23.8;;;;;;;6.36;89;96643.333333333;;;;
2024/02/10 02:23:24;;;;;;;34.5;23.8;;;;;;;6.36;88.19;96635;;;;
2024/02/10 02:34:25;;;;;;;29.4;19.5;;;;;;;6.4;87.74;96626.666666667;;;;
2024/02/10 02:44:25;;;;;;;29.4;19.5;;;;;;;6.36;87.78;96616.666666667;;;;
2024/02/10 02:55:24;;;;;;;29.4;19.5;;;;;;;6.03;89.32;96610;;;;
2024/02/10 03:05:24;;;;;;;30.3;20.2;;;;;;;6.1;89.71;96605;;;;
2024/02/10 03:16:24;;;;;;;30.3;20.2;;;;;;;6.15;90.35;96610;;;;
2024/02/10 03:26:24;;;;;;;30.3;20.2;;;;;;;6.46;89.86;96605;;;;
2024/02/10 03:36:24;;;;;;;28.6;19.9;;;;;;;6.6;89.75;96608.333333333;;;;
2024/02/10 03:47:25;;;;;;;28.6;19.9;;;;;;;6.6;89.32;96618.333333333;;;;
2024/02/10 03:58:25;;;;;;;28.6;19.9;;;;;;;6.7;89.38;96621.666666667;;;;
2024/02/10 04:09:24;;;;;;;30.1;19.9;;;;;;;6.6;89.41;96621.666666667;;;;
2024/02/10 04:19:26;;;;;;;30.1;19.9;;;;;;;6.54;89.38;96626.666666667;;;;
2024/02/10 04:29:24;;;;;;;30.1;19.9;;;;;;;6.63;89.52;96631.666666667;;;;
2024/02/10 04:38:01;;;;;;;30.6;20.9;;;;;;;6.75;89.75;96626.666666667;;;;
2024/02/10 04:49:02;;;;;;;30.6;20.9;;;;;;;6.8;88.95;96620;;;;
2024/02/10 05:00:10;;;;;;;33.4;22.7;;;;;;;6.73;89.05;96615;;;;
2024/02/10 05:10:01;;;;;;;33.4;22.7;;;;;;;6.85;89.01;96606.666666667;;;;
2024/02/10 05:21:01;;;;;;;33.4;22.7;;;;;;;6.91;89.45;96606.666666667;;;;
2024/02/10 05:31:04;;;;;;;30.1;20.9;;;;;;;7.13;90.01;96606.666666667;;;;
2024/02/10 05:42:02;;;;;;;30.1;20.9;;;;;;;7.29;90.03;96611.666666667;;;;
2024/02/10 05:52:01;;;;;;;30.1;20.9;;;;;;;7.51;90.61;96615;;;;
2024/02/10 06:02:01;;;;;;;23;14.5;;;;;;;7.66;90.02;96621.666666667;;;;
2024/02/10 06:12:04;;;;;;;23;14.5;;;;;;;7.71;89.69;96618.333333333;;;;
2024/02/10 06:23:01;;;;;;;23;14.5;;;;;;;7.66;89.84;96625;;;;
2024/02/10 06:34:01;;;;;;;35.3;23.6;;;;;;;7.58;90.51;96631.666666667;;;;
2024/02/10 06:44:04;;;;;;;35.3;23.6;;;;;;;7.76;90.24;96641.666666667;;;;
2024/02/10 06:54:02;;;;;;;35.3;23.6;;;;;;;7.93;89.37;96645;;;;
2024/02/10 07:05:01;;;;;;;26.5;17.6;;;;;;;7.87;90.46;96641.666666667;;;;
2024/02/10 07:16:05;;;;;;;26.5;17.6;;;;;;;7.86;91.35;96646.666666667;;;;
2024/02/10 07:27:01;;;;;;;26.5;17.6;;;;;;;7.92;92.12;96640;;;;
2024/02/10 07:37:04;;;;;;;19.8;11.8;;;;;;;8.08;92.1;96631.666666667;;;;
2024/02/10 07:48:03;;;;;;;19.8;11.8;;;;;;;8.29;92.29;96630;;;;
2024/02/10 07:58:04;;;;;;;19.8;11.8;;;;;;;8.62;92.35;96623.333333333;;;;
2024/02/10 08:08:09;;;;;;;23.1;17.1;;;;;;;9.03;91.58;96626.666666667;;;;
2024/02/10 08:18:05;;;;;;;23.1;17.1;;;;;;;8.91;91.64;96633.333333333;;;;
2024/02/10 08:29:01;;;;;;;23.1;17.1;;;;;;;8.87;91.75;96630;;;;
2024/02/10 08:39:03;;;;;;;10.7;8.4;;;;;;;9.04;91.68;96626.666666667;;;;
2024/02/10 08:50:01;;;;;;;10.7;8.4;;;;;;;9.44;90.87;96635;;;;
2024/02/10 09:01:04;;;;;;;11.7;7.4;;;;;;;10.05;90.98;96631.666666667;;;;
2024/02/10 09:11:01;;;;;;;11.7;7.4;;;;;;;10.47;89.33;96638.333333333;;;;
2024/02/10 09:22:03;;;;;;;11.7;7.4;;;;;;;10.67;88.73;96635;;;;
2024/02/10 09:33:01;;;;;;;31.5;25.9;;;;;;;11.63;87.8;96628.333333333;;;;
2024/02/10 09:43:01;;;;;;;31.5;25.9;;;;;;;12.32;85.83;96638.333333333;;;;
2024/02/10 09:53:02;;;;;;;31.5;25.9;;;;;;;12.92;84.06;96638.333333333;;;;
2024/02/10 10:04:01;;;;;;;21.9;16.3;;;;;;;13.44;82.48;96648.333333333;;;;
2024/02/10 10:15:01;;;;;;;21.9;16.3;;;;;;;13.93;80.57;96645;;;;
2024/02/10 10:25:02;;;;;;;21.9;16.3;;;;;;;14.47;77.59;96645;;;;
2024/02/10 10:36:02;;;;;;;15.8;12.7;;;;;;;14.75;76.4;96640;;;;
2024/02/10 10:46:01;;;;;;;15.8;12.7;;;;;;;15.3;71.69;96615;;;;
2024/02/10 10:56:01;;;;;;;15.8;12.7;;;;;;;15.02;73.13;96606.666666667;;;;
2024/02/10 11:07:01;;;;;;;11.1;7.7;;;;;;;14.97;72.45;96605;;;;
2024/02/10 11:17:03;;;;;;;11.1;7.7;;;;;;;14.94;73.31;96606.666666667;;;;
2024/02/10 11:27:01;;;;;;;11.1;7.7;;;;;;;15;73.59;96600;;;;
2024/02/10 11:38:04;;;;;;;11;7.7;;;;;;;15.23;68.58;96613.333333333;;;;
2024/02/10 11:49:02;;;;;;;11;7.7;;;;;;;15.34;70.13;96621.666666667;;;;
2024/02/10 12:00:03;;;;;;;9.8;5.9;;;;;;;15.44;68.74;96618.333333333;;;;
2024/02/10 12:10:02;;;;;;;9.8;5.9;;;;;;;15.61;68.95;96616.666666667;;;;
2024/02/10 12:21:01;;;;;;;9.8;5.9;;;;;;;15.95;67.45;96620;;;;
2024/02/10 12:31:01;;;;;;;7.8;4.9;;;;;;;15.76;67.62;96615;;;;
2024/02/10 12:41:01;;;;;;;7.8;4.9;;;;;;;15.51;66.45;96613.333333333;;;;
2024/02/10 12:52:02;;;;;;;7.8;4.9;;;;;;;15.5;66.92;96616.666666667;;;;
2024/02/10 13:02:01;;;;;;;7.7;4.5;;;;;;;15.41;65.58;96610;;;;
2024/02/10 13:13:02;;;;;;;7.7;4.5;;;;;;;15.21;63.57;96605;;;;
2024/02/10 13:23:01;;;;;;;7.7;4.5;;;;;;;15.19;62.75;96616.666666667;;;;
2024/02/10 13:34:01;;;;;;;5.4;2.5;;;;;;;15.13;62.78;96633.333333333;;;;
2024/02/10 14:05:04;;;;;;;4.9;2.3;;;;;;;14.6;64.36;96655;;;;
2024/02/10 14:16:05;;;;;;;4.9;2.3;;;;;;;14.56;65.45;96645;;;;
2024/02/10 14:27:13;;;;;;;4.9;2.3;;;;;;;14.33;64.97;96645;;;;
2024/02/10 14:37:19;;;;;;;4.7;2.5;;;;;;;14.1;66.93;96646.666666667;;;;
2024/02/10 14:47:02;;;;;;;4.7;2.5;;;;;;;13.73;67.6;96646.666666667;;;;
2024/02/10 14:57:02;;;;;;;4.7;2.5;;;;;;;13.34;68.86;96655;;;;
2024/02/10 15:08:02;;;;;;;8.9;5.7;;;;;;;12.9;69.67;96656.666666667;;;;
2024/02/10 15:19:01;;;;;;;8.9;5.7;;;;;;;12.41;70.75;96655;;;;
2024/02/10 15:29:01;;;;;;;8.9;5.7;;;;;;;11.96;71.38;96655;;;;
2024/02/10 15:40:03;;;;;;;10.4;5.3;;;;;;;11.46;72.03;96660;;;;
2024/02/10 15:51:03;;;;;;;10.4;5.3;;;;;;;11.06;74.39;96656.666666667;;;;
2024/02/10 16:01:01;;;;;;;14.1;7.1;;;;;;;10.75;75.4;96648.333333333;;;;
2024/02/10 16:12:01;;;;;;;14.1;7.1;;;;;;;10.51;75.37;96665;;;;
2024/02/10 16:22:02;;;;;;;14.1;7.1;;;;;;;10.33;76.45;96671.666666667;;;;
2024/02/10 16:33:01;;;;;;;19.4;10.6;;;;;;;10.03;76.19;96675;;;;
2024/02/10 16:44:03;;;;;;;19.4;10.6;;;;;;;9.72;76.42;96673.333333333;;;;
2024/02/10 16:54:02;;;;;;;19.4;10.6;;;;;;;9.49;77.58;96675;;;;
2024/02/10 17:04:03;;;;;;;16.7;8.8;;;;;;;9.27;78.58;96676.666666667;;;;
2024/02/10 17:15:01;;;;;;;16.7;8.8;;;;;;;9.1;79.38;96676.666666667;;;;
2024/02/10 17:25:04;;;;;;;16.7;8.8;;;;;;;8.96;79.85;96673.333333333;;;;
2024/02/10 17:35:01;;;;;;;15.2;8.8;;;;;;;8.94;80.18;96676.666666667;;;;
2024/02/10 17:46:01;;;;;;;15.2;8.8;;;;;;;8.93;80.34;96668.333333333;;;;
2024/02/10 17:56:02;;;;;;;15.2;8.8;;;;;;;8.95;80.47;96673.333333333;;;;
2024/02/10 18:06:01;;;;;;;14.6;7.8;;;;;;;8.99;79.99;96658.333333333;;;;
2024/02/10 18:17:02;;;;;;;14.6;7.8;;;;;;;8.9;79.93;96661.666666667;;;;
2024/02/10 18:28:03;;;;;;;14.6;7.8;;;;;;;8.92;80.05;96678.333333333;;;;
2024/02/10 18:39:01;;;;;;;13.2;8.1;;;;;;;8.96;79.72;96676.666666667;;;;
2024/02/10 18:50:01;;;;;;;13.2;8.1;;;;;;;8.9;79.98;96675;;;;
2024/02/10 19:01:03;;;;;;;20.2;8.9;;;;;;;8.94;79.52;96666.666666667;;;;
2024/02/10 19:11:02;;;;;;;20.2;8.9;;;;;;;9.05;79.18;96675;;;;
2024/02/10 19:21:02;;;;;;;20.2;8.9;;;;;;;8.96;78.69;96676.666666667;;;;
2024/02/10 19:32:01;;;;;;;32.5;18.6;;;;;;;8.51;78.97;96680;;;;
2024/02/10 19:42:01;;;;;;;32.5;18.6;;;;;;;8.14;79.41;96676.666666667;;;;
2024/02/10 19:53:02;;;;;;;32.5;18.6;;;;;;;7.92;82.73;96675;;;;
2024/02/10 20:04:03;;;;;;;21.7;11.1;;;;;;;8.36;82.23;96668.333333333;;;;
2024/02/10 20:15:01;;;;;;;21.7;11.1;;;;;;;8.7;81.43;96666.666666667;;;;
2024/02/10 20:25:04;;;;;;;21.7;11.1;;;;;;;8.79;81.65;96671.666666667;;;;
2024/02/10 20:35:01;;;;;;;18.5;8.9;;;;;;;8.89;81.59;96670;;;;
2024/02/10 20:46:02;;;;;;;18.5;8.9;;;;;;;8.97;81.33;96660;;;;
2024/02/10 20:56:02;;;;;;;18.5;8.9;;;;;;;9.09;80.79;96651.666666667;;;;
2024/02/10 21:07:01;;;;;;;15.8;9.8;;;;;;;9.19;80.23;96638.333333333;;;;
2024/02/10 21:18:04;;;;;;;15.8;9.8;;;;;;;9.35;79.65;96638.333333333;;;;
2024/02/10 21:28:01;;;;;;;15.8;9.8;;;;;;;9.45;79.01;96631.666666667;;;;
2024/02/10 21:39:03;;;;;;;17.3;9.8;;;;;;;9.73;77.77;96630;;;;
2024/02/10 21:49:02;;;;;;;17.3;9.8;;;;;;;9.83;77.42;96635;;;;
2024/02/10 22:00:07;;;;;;;15.6;8.8;;;;;;;9.94;76.68;96643.333333333;;;;
2024/02/10 22:11:01;;;;;;;15.6;8.8;;;;;;;10.02;76.08;96645;;;;
2024/02/10 22:22:02;;;;;;;15.6;8.8;;;;;;;10.21;75.44;96651.666666667;;;;
2024/02/10 22:32:02;;;;;;;19.2;10.8;;;;;;;9.72;77.75;96660;;;;
2024/02/10 22:43:02;;;;;;;19.2;10.8;;;;;;;9.41;78.86;96658.333333333;;;;
2024/02/10 22:53:03;;;;;;;19.2;10.8;;;;;;;8.97;80.91;96660;;;;
2024/02/10 23:04:01;;;;;;;26.1;17.4;;;;;;;8.94;81.34;96650;;;;
2024/02/10 23:14:02;;;;;;;26.1;17.4;;;;;;;8.96;81.77;96650;;;;
2024/02/10 23:24:02;;;;;;;26.1;17.4;;;;;;;8.84;82.16;96643.333333333;;;;
2024/02/10 23:35:01;;;;;;;27.6;15.5;;;;;;;8.8;82.4;96653.333333333;;;;
2024/02/10 23:45:02;;;;;;;27.6;15.5;;;;;;;8.75;82.83;96643.333333333;;;;
2024/02/10 23:56:06;;;;;;;27.6;15.5;;;;;;;8.81;82.73;96638.333333333;;;;
